createdAt,value
2019-02-22T00:00:18.642Z,56.58
2019-02-22T00:00:59.212Z,55.85
2019-02-22T00:01:39.670Z,49.60
2019-02-22T00:02:24.083Z,56.63
2019-02-22T00:02:57.031Z,53.68
2019-02-22T00:03:29.907Z,53.58
2019-02-22T00:04:02.930Z,55.80
2019-02-22T00:04:35.809Z,54.98
2019-02-22T00:05:08.828Z,50.35
2019-02-22T00:05:41.834Z,52.88
2019-02-22T00:06:14.746Z,55.58
2019-02-22T00:06:47.641Z,56.85
2019-02-22T00:07:20.675Z,53.13
2019-02-22T00:07:53.563Z,50.48
2019-02-22T00:08:26.418Z,55.58
2019-02-22T00:08:59.376Z,54.63
2019-02-22T00:09:32.205Z,51.65
2019-02-22T00:10:06.922Z,51.73
2019-02-22T00:10:39.985Z,55.63
2019-02-22T00:11:13.010Z,54.80
2019-02-22T00:11:45.966Z,57.43
2019-02-22T00:12:19.021Z,53.13
2019-02-22T00:12:51.936Z,54.40
2019-02-22T00:13:24.918Z,51.55
2019-02-22T00:13:57.874Z,55.90
2019-02-22T00:14:30.692Z,52.75
2019-02-22T00:15:06.498Z,56.05
2019-02-22T00:15:39.593Z,51.80
2019-02-22T00:16:12.658Z,52.53
2019-02-22T00:16:45.678Z,57.53
2019-02-22T00:17:18.843Z,52.27
2019-02-22T00:17:51.860Z,53.80
2019-02-22T00:18:24.780Z,53.85
2019-02-22T00:18:57.670Z,55.45
2019-02-22T00:19:30.748Z,52.05
2019-02-22T00:20:04.062Z,56.08
2019-02-22T00:20:37.128Z,54.90
2019-02-22T00:21:10.024Z,51.25
2019-02-22T00:21:43.076Z,55.00
2019-02-22T00:22:16.006Z,55.28
2019-02-22T00:22:48.948Z,53.25
2019-02-22T00:23:21.845Z,59.13
2019-02-22T00:23:54.974Z,58.00
2019-02-22T00:24:27.841Z,52.15
2019-02-22T00:25:01.996Z,57.83
2019-02-22T00:25:35.007Z,55.30
2019-02-22T00:26:08.140Z,52.23
2019-02-22T00:26:41.284Z,55.55
2019-02-22T00:27:14.308Z,54.63
2019-02-22T00:27:47.188Z,52.25
2019-02-22T00:28:20.348Z,52.83
2019-02-22T00:28:53.330Z,54.65
2019-02-22T00:29:26.490Z,54.08
2019-02-22T00:29:59.416Z,56.58
2019-02-22T00:30:32.524Z,56.10
2019-02-22T00:31:05.328Z,51.95
2019-02-22T00:31:39.296Z,51.88
2019-02-22T00:32:12.192Z,53.45
2019-02-22T00:32:45.249Z,51.85
2019-02-22T00:33:18.060Z,52.88
2019-02-22T00:33:51.079Z,52.60
2019-02-22T00:34:24.046Z,57.83
2019-02-22T00:34:56.980Z,51.63
2019-02-22T00:35:29.833Z,55.05
2019-02-22T00:36:02.944Z,57.08
2019-02-22T00:36:35.944Z,54.25
2019-02-22T00:37:08.863Z,51.75
2019-02-22T00:37:41.659Z,56.02
2019-02-22T00:38:15.346Z,59.45
2019-02-22T00:38:48.254Z,56.75
2019-02-22T00:39:21.244Z,56.95
2019-02-22T00:39:54.135Z,57.20
2019-02-22T00:40:28.226Z,56.90
2019-02-22T00:41:01.102Z,55.10
2019-02-22T00:41:35.031Z,53.48
2019-02-22T00:42:07.915Z,52.83
2019-02-22T00:42:41.474Z,55.67
2019-02-22T00:43:14.277Z,52.08
2019-02-22T00:43:47.300Z,55.40
2019-02-22T00:44:20.394Z,51.73
2019-02-22T00:44:53.369Z,52.65
2019-02-22T00:45:26.240Z,50.73
2019-02-22T00:45:59.170Z,52.98
2019-02-22T00:46:32.174Z,56.13
2019-02-22T00:47:05.089Z,54.03
2019-02-22T00:47:37.902Z,50.75
2019-02-22T00:48:12.432Z,50.45
2019-02-22T00:48:45.228Z,56.37
2019-02-22T00:49:18.048Z,57.25
2019-02-22T00:49:51.046Z,52.93
2019-02-22T00:50:24.092Z,56.58
2019-02-22T00:50:56.914Z,52.05
2019-02-22T00:51:30.002Z,50.65
2019-02-22T00:52:03.071Z,51.02
2019-02-22T00:52:36.027Z,50.43
2019-02-22T00:53:09.122Z,53.65
2019-02-22T00:53:42.064Z,52.65
2019-02-22T00:54:14.970Z,54.20
2019-02-22T00:54:47.812Z,54.05
2019-02-22T00:55:20.696Z,53.83
2019-02-22T00:55:53.669Z,56.90
2019-02-22T00:56:26.523Z,55.55
2019-02-22T00:56:59.697Z,53.05
2019-02-22T00:57:32.699Z,49.55
2019-02-22T00:58:05.810Z,54.60
2019-02-22T00:58:38.812Z,53.90
2019-02-22T00:59:12.734Z,53.58
2019-02-22T00:59:45.613Z,55.12
2019-02-22T01:00:18.682Z,54.90
2019-02-22T01:00:51.692Z,54.95
2019-02-22T01:01:24.607Z,54.13
2019-02-22T01:01:57.514Z,53.52
2019-02-22T01:02:30.426Z,48.70
2019-02-22T01:03:05.066Z,52.60
2019-02-22T01:05:42.370Z,55.78
2019-02-22T01:06:15.464Z,54.53
2019-02-22T01:06:48.554Z,57.85
2019-02-22T01:07:21.502Z,50.85
2019-02-22T01:07:54.405Z,52.90
2019-02-22T01:08:27.442Z,51.35
2019-02-22T01:09:00.579Z,53.23
2019-02-22T01:09:33.659Z,54.65
2019-02-22T01:10:06.770Z,54.80
2019-02-22T01:10:40.052Z,49.50
2019-02-22T01:11:12.957Z,51.00
2019-02-22T01:11:46.322Z,53.85
2019-02-22T01:12:19.274Z,53.38
2019-02-22T01:12:52.220Z,52.25
2019-02-22T01:13:25.258Z,52.70
2019-02-22T01:13:58.227Z,53.13
2019-02-22T01:14:31.108Z,51.02
2019-02-22T01:15:04.723Z,56.33
2019-02-22T01:15:39.117Z,54.65
2019-02-22T01:16:12.093Z,54.35
2019-02-22T01:16:45.002Z,52.35
2019-02-22T01:17:18.074Z,54.45
2019-02-22T01:17:51.122Z,53.52
2019-02-22T01:18:24.061Z,57.03
2019-02-22T01:18:56.962Z,54.48
2019-02-22T01:19:30.000Z,53.45
2019-02-22T01:20:03.240Z,52.62
2019-02-22T01:20:36.421Z,54.40
2019-02-22T01:21:09.436Z,60.63
2019-02-22T01:21:42.312Z,54.63
2019-02-22T01:22:15.215Z,50.43
2019-02-22T01:22:48.315Z,54.80
2019-02-22T01:23:21.295Z,55.43
2019-02-22T01:23:54.269Z,56.42
2019-02-22T01:24:27.339Z,54.35
2019-02-22T01:25:00.660Z,50.98
2019-02-22T01:25:33.671Z,54.88
2019-02-22T01:26:08.050Z,54.83
2019-02-22T01:26:41.111Z,53.98
2019-02-22T01:27:14.159Z,52.95
2019-02-22T01:27:47.087Z,50.70
2019-02-22T01:28:20.137Z,52.27
2019-02-22T01:28:53.028Z,55.80
2019-02-22T01:29:25.939Z,59.80
2019-02-22T01:29:58.943Z,51.92
2019-02-22T01:30:32.051Z,55.90
2019-02-22T01:31:05.283Z,52.65
2019-02-22T01:31:38.443Z,53.75
2019-02-22T01:32:11.361Z,53.02
2019-02-22T01:32:44.315Z,49.77
2019-02-22T01:33:17.232Z,56.77
2019-02-22T01:33:50.291Z,53.80
2019-02-22T01:34:23.137Z,56.95
2019-02-22T01:34:56.231Z,51.20
2019-02-22T01:35:29.315Z,54.80
2019-02-22T01:36:02.409Z,51.42
2019-02-22T01:36:35.514Z,54.08
2019-02-22T01:37:08.683Z,48.87
2019-02-22T01:37:41.705Z,51.98
2019-02-22T01:38:14.637Z,57.55
2019-02-22T01:38:47.629Z,53.90
2019-02-22T01:39:20.458Z,52.65
2019-02-22T01:39:53.419Z,55.80
2019-02-22T01:40:27.703Z,53.68
2019-02-22T01:41:00.630Z,55.30
2019-02-22T01:41:33.743Z,55.90
2019-02-22T01:42:06.629Z,51.77
2019-02-22T01:42:39.695Z,58.48
2019-02-22T01:43:12.687Z,52.23
2019-02-22T01:43:45.705Z,50.05
2019-02-22T01:44:20.891Z,57.27
2019-02-22T01:44:55.028Z,53.38
2019-02-22T01:45:27.937Z,57.23
2019-02-22T01:46:01.843Z,52.55
2019-02-22T01:46:34.851Z,53.52
2019-02-22T01:47:07.927Z,53.75
2019-02-22T01:47:40.905Z,49.98
2019-02-22T01:48:15.055Z,49.65
2019-02-22T01:48:48.075Z,53.95
2019-02-22T01:49:21.014Z,60.28
2019-02-22T01:49:53.981Z,56.68
2019-02-22T01:50:26.927Z,52.95
2019-02-22T01:50:59.837Z,55.35
2019-02-22T01:51:32.854Z,52.55
2019-02-22T01:52:05.845Z,56.33
2019-02-22T01:52:38.779Z,55.38
2019-02-22T01:53:11.687Z,50.45
2019-02-22T01:53:44.744Z,51.48
2019-02-22T01:54:18.764Z,56.98
2019-02-22T01:54:51.957Z,54.75
2019-02-22T01:55:24.848Z,51.60
2019-02-22T01:55:57.885Z,53.23
2019-02-22T01:56:31.135Z,52.60
2019-02-22T01:57:04.177Z,53.98
2019-02-22T01:57:37.182Z,51.73
2019-02-22T01:58:10.223Z,48.83
2019-02-22T01:58:48.684Z,51.20
2019-02-22T01:59:17.974Z,55.80
2019-02-22T01:59:50.861Z,53.65
2019-02-22T02:00:24.919Z,54.13
2019-02-22T02:00:57.911Z,53.78
2019-02-22T02:01:30.982Z,58.70
2019-02-22T02:02:04.097Z,58.68
2019-02-22T02:02:37.133Z,54.20
2019-02-22T02:03:10.137Z,52.85
2019-02-22T02:03:44.323Z,60.43
2019-02-22T02:04:17.321Z,54.05
2019-02-22T02:04:50.351Z,55.08
2019-02-22T02:05:23.325Z,54.53
2019-02-22T02:05:57.328Z,54.90
2019-02-22T02:06:30.315Z,57.03
2019-02-22T02:07:04.055Z,55.35
2019-02-22T02:07:37.067Z,59.33
2019-02-22T02:08:10.019Z,51.85
2019-02-22T02:08:42.930Z,57.38
2019-02-22T02:09:15.971Z,54.13
2019-02-22T02:09:48.973Z,56.83
2019-02-22T02:10:22.095Z,55.92
2019-02-22T02:10:54.973Z,60.88
2019-02-22T02:11:27.899Z,52.13
2019-02-22T02:12:01.968Z,51.80
2019-02-22T02:12:35.236Z,54.40
2019-02-22T02:13:08.125Z,52.17
2019-02-22T02:13:41.041Z,54.05
2019-02-22T02:14:14.027Z,53.92
2019-02-22T02:14:47.153Z,54.75
2019-02-22T02:15:20.077Z,54.48
2019-02-22T02:15:53.405Z,58.48
2019-02-22T02:16:26.193Z,51.42
2019-02-22T02:16:59.121Z,57.13
2019-02-22T02:17:32.135Z,51.58
2019-02-22T02:18:05.167Z,52.45
2019-02-22T02:18:38.239Z,56.58
2019-02-22T02:19:11.329Z,58.08
2019-02-22T02:19:44.250Z,53.65
2019-02-22T02:20:17.461Z,57.50
2019-02-22T02:20:50.414Z,59.48
2019-02-22T02:21:23.731Z,53.58
2019-02-22T02:21:56.759Z,52.85
2019-02-22T02:22:29.815Z,51.40
2019-02-22T02:23:02.923Z,51.95
2019-02-22T02:23:35.944Z,57.25
2019-02-22T02:24:08.837Z,59.13
2019-02-22T02:24:42.372Z,50.08
2019-02-22T02:25:15.384Z,59.33
2019-02-22T02:25:48.319Z,60.43
2019-02-22T02:26:21.205Z,50.60
2019-02-22T02:26:54.242Z,59.30
2019-02-22T02:27:27.262Z,51.28
2019-02-22T02:28:00.237Z,55.23
2019-02-22T02:28:33.235Z,55.67
2019-02-22T02:29:06.284Z,58.10
2019-02-22T02:29:39.189Z,55.90
2019-02-22T02:30:12.302Z,55.80
2019-02-22T02:30:45.227Z,59.18
2019-02-22T02:31:19.022Z,51.28
2019-02-22T02:31:51.936Z,55.28
2019-02-22T02:32:26.034Z,53.45
2019-02-22T02:32:59.014Z,55.70
2019-02-22T02:33:32.964Z,56.45
2019-02-22T02:34:05.866Z,59.95
2019-02-22T02:34:38.841Z,49.18
2019-02-22T02:35:11.778Z,50.80
2019-02-22T02:35:44.727Z,61.18
2019-02-22T02:36:17.644Z,57.13
2019-02-22T02:36:50.567Z,54.00
2019-02-22T02:37:23.581Z,56.50
2019-02-22T02:37:58.235Z,54.67
2019-02-22T02:38:31.243Z,56.60
2019-02-22T02:39:05.573Z,59.88
2019-02-22T02:39:40.067Z,56.25
2019-02-22T02:40:12.993Z,54.30
2019-02-22T02:40:45.910Z,56.68
2019-02-22T02:41:18.949Z,60.55
2019-02-22T02:41:51.845Z,57.83
2019-02-22T02:42:24.703Z,57.08
2019-02-22T02:42:57.487Z,57.53
2019-02-22T02:43:30.531Z,52.70
2019-02-22T02:44:03.427Z,59.35
2019-02-22T02:44:36.388Z,57.65
2019-02-22T02:45:09.431Z,54.25
2019-02-22T02:45:42.353Z,57.38
2019-02-22T02:46:15.388Z,56.65
2019-02-22T02:46:48.313Z,52.93
2019-02-22T02:47:21.196Z,51.73
2019-02-22T02:47:54.291Z,49.38
2019-02-22T02:48:27.294Z,56.98
2019-02-22T02:49:01.340Z,53.25
2019-02-22T02:49:34.144Z,54.15
2019-02-22T02:50:07.292Z,57.53
2019-02-22T02:50:41.358Z,57.20
2019-02-22T02:51:14.393Z,58.68
2019-02-22T02:51:47.284Z,53.13
2019-02-22T02:52:20.372Z,50.98
2019-02-22T02:52:53.449Z,53.68
2019-02-22T02:53:26.484Z,58.70
2019-02-22T02:53:59.305Z,56.05
2019-02-22T02:54:32.330Z,51.53
2019-02-22T02:55:28.218Z,58.95
2019-02-22T02:56:02.281Z,53.58
2019-02-22T02:56:35.266Z,52.60
2019-02-22T02:57:08.181Z,56.77
2019-02-22T02:57:41.183Z,55.00
2019-02-22T02:58:14.236Z,53.58
2019-02-22T02:58:47.131Z,49.67
2019-02-22T02:59:20.168Z,60.92
2019-02-22T02:59:53.326Z,50.12
2019-02-22T03:00:26.396Z,55.78
2019-02-22T03:00:59.387Z,52.93
2019-02-22T03:01:32.340Z,54.18
2019-02-22T03:02:09.651Z,56.53
2019-02-22T03:02:42.681Z,53.42
2019-02-22T03:03:15.573Z,57.85
2019-02-22T03:03:49.886Z,57.43
2019-02-22T03:04:22.819Z,56.58
2019-02-22T03:04:57.084Z,60.73
2019-02-22T03:05:48.647Z,54.03
2019-02-22T03:06:45.823Z,53.42
2019-02-22T03:07:37.195Z,57.78
2019-02-22T03:08:10.238Z,51.53
2019-02-22T03:08:43.239Z,57.58
2019-02-22T03:09:16.392Z,56.55
2019-02-22T03:09:49.308Z,57.60
2019-02-22T03:10:22.430Z,55.30
2019-02-22T03:10:55.322Z,53.33
2019-02-22T03:11:28.374Z,57.23
2019-02-22T03:12:01.270Z,58.83
2019-02-22T03:12:34.325Z,61.00
2019-02-22T03:13:07.217Z,56.53
2019-02-22T03:13:40.181Z,54.23
2019-02-22T03:14:13.190Z,57.73
2019-02-22T03:14:46.157Z,54.45
2019-02-22T03:15:19.469Z,59.75
2019-02-22T03:15:52.390Z,53.90
2019-02-22T03:16:25.399Z,58.17
2019-02-22T03:16:58.328Z,53.63
2019-02-22T03:17:31.220Z,58.17
2019-02-22T03:18:04.142Z,56.35
2019-02-22T03:18:37.147Z,54.27
2019-02-22T03:19:10.105Z,54.80
2019-02-22T03:19:42.997Z,55.85
2019-02-22T03:20:16.082Z,58.10
2019-02-22T03:20:48.965Z,54.18
2019-02-22T03:21:21.916Z,57.65
2019-02-22T03:21:54.699Z,54.83
2019-02-22T03:22:27.732Z,59.98
2019-02-22T03:23:01.635Z,54.30
2019-02-22T03:23:34.570Z,54.48
2019-02-22T03:24:07.546Z,57.38
2019-02-22T03:24:40.686Z,59.10
2019-02-22T03:25:13.584Z,51.68
2019-02-22T03:25:47.556Z,50.75
2019-02-22T03:26:20.520Z,54.38
2019-02-22T03:26:53.495Z,51.75
2019-02-22T03:27:26.410Z,52.45
2019-02-22T03:27:59.438Z,56.02
2019-02-22T03:28:32.246Z,51.40
2019-02-22T03:29:05.301Z,55.25
2019-02-22T03:29:38.100Z,52.60
2019-02-22T03:30:11.276Z,54.48
2019-02-22T03:30:44.201Z,55.05
2019-02-22T03:31:17.220Z,57.03
2019-02-22T03:31:50.224Z,55.17
2019-02-22T03:32:23.176Z,50.80
2019-02-22T03:32:56.158Z,53.13
2019-02-22T03:33:29.018Z,54.38
2019-02-22T03:34:01.849Z,56.53
2019-02-22T03:34:34.658Z,52.13
2019-02-22T03:35:07.725Z,55.43
2019-02-22T03:35:41.925Z,51.60
2019-02-22T03:36:15.060Z,59.38
2019-02-22T03:36:48.105Z,54.38
2019-02-22T03:37:21.034Z,51.00
2019-02-22T03:37:54.163Z,55.43
2019-02-22T03:38:27.136Z,52.80
2019-02-22T03:38:59.947Z,56.10
2019-02-22T03:39:32.789Z,54.18
2019-02-22T03:40:05.938Z,49.77
2019-02-22T03:40:39.046Z,54.70
2019-02-22T03:41:12.092Z,53.78
2019-02-22T03:41:45.217Z,54.15
2019-02-22T03:42:18.200Z,56.77
2019-02-22T03:42:51.255Z,54.25
2019-02-22T03:43:24.101Z,51.18
2019-02-22T03:43:56.989Z,55.43
2019-02-22T03:44:29.913Z,49.10
2019-02-22T03:45:03.050Z,51.90
2019-02-22T03:45:35.957Z,52.33
2019-02-22T03:46:08.993Z,51.48
2019-02-22T03:46:42.232Z,54.23
2019-02-22T03:47:15.095Z,52.90
2019-02-22T03:47:48.002Z,52.30
2019-02-22T03:48:21.025Z,55.52
2019-02-22T03:48:53.965Z,56.02
2019-02-22T03:49:26.979Z,53.65
2019-02-22T03:50:00.009Z,57.75
2019-02-22T03:50:32.993Z,51.70
2019-02-22T03:51:06.136Z,56.77
2019-02-22T03:51:39.067Z,57.67
2019-02-22T03:52:40.696Z,50.08
2019-02-22T03:53:20.729Z,52.35
2019-02-22T03:53:57.535Z,52.53
2019-02-22T03:54:32.281Z,49.67
2019-02-22T03:55:05.488Z,47.53
2019-02-22T03:55:38.507Z,54.63
2019-02-22T03:56:11.550Z,52.15
2019-02-22T03:56:44.541Z,47.95
2019-02-22T03:57:17.820Z,47.75
2019-02-22T03:57:52.423Z,53.70
2019-02-22T03:58:25.356Z,56.88
2019-02-22T03:58:58.344Z,50.78
2019-02-22T03:59:31.392Z,48.40
2019-02-22T04:00:04.910Z,50.58
2019-02-22T04:00:39.603Z,50.98
2019-02-22T04:01:12.637Z,56.58
2019-02-22T04:01:45.631Z,52.38
2019-02-22T04:02:18.757Z,54.98
2019-02-22T04:02:51.867Z,53.98
2019-02-22T04:03:25.007Z,60.10
2019-02-22T04:03:58.091Z,55.12
2019-02-22T04:04:31.341Z,53.13
2019-02-22T04:05:06.637Z,51.45
2019-02-22T04:05:41.242Z,55.33
2019-02-22T04:06:15.978Z,53.65
2019-02-22T04:06:49.846Z,54.00
2019-02-22T04:07:22.879Z,53.87
2019-02-22T04:07:56.572Z,54.83
2019-02-22T04:08:29.619Z,50.50
2019-02-22T04:09:04.681Z,50.15
2019-02-22T04:09:39.061Z,55.35
2019-02-22T04:10:12.281Z,56.35
2019-02-22T04:10:45.336Z,54.77
2019-02-22T04:11:18.454Z,56.40
2019-02-22T04:11:51.411Z,59.53
2019-02-22T04:12:24.397Z,53.50
2019-02-22T04:12:57.271Z,52.80
2019-02-22T04:13:30.407Z,52.80
2019-02-22T04:14:03.436Z,59.77
2019-02-22T04:14:36.415Z,57.78
2019-02-22T04:15:09.526Z,58.38
2019-02-22T04:15:42.598Z,58.73
2019-02-22T04:16:15.447Z,63.83
2019-02-22T04:16:48.473Z,59.27
2019-02-22T04:17:21.505Z,60.23
2019-02-22T04:17:54.335Z,59.63
2019-02-22T04:18:27.435Z,63.17
2019-02-22T04:19:00.479Z,65.37
2019-02-22T04:19:33.528Z,57.98
2019-02-22T04:20:06.749Z,61.95
2019-02-22T04:20:39.677Z,59.70
2019-02-22T04:21:13.829Z,57.75
2019-02-22T04:21:46.800Z,63.25
2019-02-22T04:22:22.283Z,58.10
2019-02-22T04:22:56.770Z,66.95
2019-02-22T04:23:29.603Z,67.20
2019-02-22T04:24:02.703Z,63.05
2019-02-22T04:24:35.713Z,69.20
2019-02-22T04:25:08.827Z,65.75
2019-02-22T04:25:41.847Z,69.42
2019-02-22T04:26:14.849Z,71.33
2019-02-22T04:26:47.907Z,65.15
2019-02-22T04:27:20.893Z,67.17
2019-02-22T04:27:54.789Z,70.70
2019-02-22T04:28:27.789Z,68.02
2019-02-22T04:29:00.704Z,67.30
2019-02-22T04:29:33.727Z,71.40
2019-02-22T04:30:07.994Z,69.65
2019-02-22T04:30:40.812Z,66.45
2019-02-22T04:31:13.683Z,70.37
2019-02-22T04:31:46.654Z,70.83
2019-02-22T04:32:19.644Z,69.40
2019-02-22T04:32:52.586Z,74.70
2019-02-22T04:33:25.503Z,67.75
2019-02-22T04:33:58.463Z,69.77
2019-02-22T04:34:31.373Z,68.78
2019-02-22T04:35:04.539Z,73.92
2019-02-22T04:35:37.609Z,68.85
2019-02-22T04:36:10.651Z,68.07
2019-02-22T04:36:43.821Z,71.17
2019-02-22T04:37:16.720Z,74.12
2019-02-22T04:37:49.645Z,75.78
2019-02-22T04:38:22.548Z,70.32
2019-02-22T04:38:56.369Z,66.53
2019-02-22T04:39:29.277Z,74.87
2019-02-22T04:40:02.314Z,75.03
2019-02-22T04:40:35.209Z,68.97
2019-02-22T04:41:08.112Z,67.50
2019-02-22T04:41:41.037Z,75.65
2019-02-22T04:42:13.839Z,77.30
2019-02-22T04:42:46.862Z,72.45
2019-02-22T04:43:19.761Z,72.05
2019-02-22T04:43:52.871Z,77.58
2019-02-22T04:44:27.399Z,66.55
2019-02-22T04:45:00.401Z,67.03
2019-02-22T04:45:33.273Z,69.82
2019-02-22T04:46:06.413Z,72.35
2019-02-22T04:46:39.418Z,78.15
2019-02-22T04:47:12.447Z,77.00
2019-02-22T04:47:45.389Z,73.12
2019-02-22T04:48:18.389Z,70.78
2019-02-22T04:48:51.400Z,69.67
2019-02-22T04:49:24.509Z,69.37
2019-02-22T04:49:57.535Z,66.37
2019-02-22T04:50:30.543Z,71.33
2019-02-22T04:51:03.741Z,67.25
2019-02-22T04:51:36.741Z,71.05
2019-02-22T04:52:10.045Z,69.40
2019-02-22T04:52:42.940Z,80.00
2019-02-22T04:53:15.986Z,73.52
2019-02-22T04:53:49.001Z,68.95
2019-02-22T04:54:23.421Z,75.45
2019-02-22T04:54:56.340Z,70.92
2019-02-22T04:55:30.235Z,65.22
2019-02-22T04:56:03.195Z,75.42
2019-02-22T04:56:36.017Z,69.45
2019-02-22T04:57:09.036Z,68.72
2019-02-22T04:57:41.905Z,73.45
2019-02-22T04:58:14.834Z,74.12
2019-02-22T04:58:47.805Z,73.05
2019-02-22T04:59:20.830Z,68.57
2019-02-22T04:59:55.511Z,73.15
2019-02-22T05:00:28.599Z,74.77
2019-02-22T05:01:01.607Z,66.30
2019-02-22T05:01:34.579Z,63.75
2019-02-22T05:02:07.539Z,63.75
2019-02-22T05:02:40.536Z,67.10
2019-02-22T05:03:13.453Z,66.00
2019-02-22T05:03:46.466Z,66.35
2019-02-22T05:04:19.343Z,68.12
2019-02-22T05:04:52.243Z,66.37
2019-02-22T05:05:25.281Z,71.45
2019-02-22T05:05:58.089Z,75.08
2019-02-22T05:06:30.907Z,66.20
2019-02-22T05:07:04.058Z,68.50
2019-02-22T05:07:37.001Z,63.50
2019-02-22T05:08:09.838Z,66.02
2019-02-22T05:08:42.752Z,68.05
2019-02-22T05:09:15.824Z,68.75
2019-02-22T05:09:48.812Z,66.00
2019-02-22T05:10:21.725Z,61.98
2019-02-22T05:10:54.699Z,64.20
2019-02-22T05:11:27.777Z,64.80
2019-02-22T05:12:10.433Z,68.17
2019-02-22T05:12:35.552Z,72.25
2019-02-22T05:13:08.494Z,61.90
2019-02-22T05:13:41.572Z,62.85
2019-02-22T05:14:14.598Z,69.40
2019-02-22T05:14:47.420Z,62.75
2019-02-22T05:15:21.367Z,64.05
2019-02-22T05:15:54.216Z,67.10
2019-02-22T05:16:27.202Z,68.67
2019-02-22T05:17:00.373Z,69.82
2019-02-22T05:17:35.648Z,64.65
2019-02-22T05:18:08.205Z,64.70
2019-02-22T05:18:41.008Z,66.00
2019-02-22T05:19:14.092Z,67.87
2019-02-22T05:19:47.050Z,63.60
2019-02-22T05:20:20.181Z,65.85
2019-02-22T05:20:53.181Z,68.17
2019-02-22T05:21:26.201Z,64.90
2019-02-22T05:21:59.178Z,67.25
2019-02-22T05:22:32.164Z,62.80
2019-02-22T05:23:07.448Z,70.78
2019-02-22T05:23:39.994Z,71.80
2019-02-22T05:24:12.837Z,64.30
2019-02-22T05:24:45.860Z,65.78
2019-02-22T05:25:18.956Z,58.85
2019-02-22T05:25:51.876Z,64.87
2019-02-22T05:26:24.959Z,64.75
2019-02-22T05:26:57.895Z,58.28
2019-02-22T05:27:30.758Z,62.98
2019-02-22T05:28:03.783Z,63.15
2019-02-22T05:28:36.584Z,65.28
2019-02-22T05:29:09.630Z,68.15
2019-02-22T05:29:42.429Z,68.00
2019-02-22T05:30:15.543Z,65.92
2019-02-22T05:30:48.546Z,65.52
2019-02-22T05:31:21.488Z,60.80
2019-02-22T05:31:54.388Z,65.95
2019-02-22T05:32:27.344Z,64.17
2019-02-22T05:33:00.224Z,61.10
2019-02-22T05:33:33.260Z,67.78
2019-02-22T05:34:06.274Z,60.05
2019-02-22T05:34:39.084Z,62.20
2019-02-22T05:35:12.110Z,60.70
2019-02-22T05:35:45.189Z,61.70
2019-02-22T05:36:17.995Z,62.58
2019-02-22T05:36:50.864Z,63.95
2019-02-22T05:37:23.884Z,60.92
2019-02-22T05:37:56.828Z,63.05
2019-02-22T05:38:29.728Z,68.65
2019-02-22T05:39:04.198Z,58.40
2019-02-22T05:39:37.196Z,59.65
2019-02-22T05:40:10.340Z,58.55
2019-02-22T05:40:43.246Z,64.50
2019-02-22T05:41:16.357Z,63.42
2019-02-22T05:41:49.284Z,63.02
2019-02-22T05:42:23.349Z,60.05
2019-02-22T05:42:56.507Z,63.98
2019-02-22T05:43:29.571Z,67.03
2019-02-22T05:44:02.559Z,57.95
2019-02-22T05:44:35.383Z,64.32
2019-02-22T05:45:08.358Z,64.15
2019-02-22T05:45:41.378Z,61.30
2019-02-22T05:46:14.280Z,62.62
2019-02-22T05:46:47.162Z,57.62
2019-02-22T05:47:20.045Z,55.25
2019-02-22T05:47:53.300Z,63.25
2019-02-22T05:48:26.204Z,60.73
2019-02-22T05:48:59.037Z,62.03
2019-02-22T05:49:31.834Z,60.40
2019-02-22T05:50:05.363Z,63.55
2019-02-22T05:50:38.383Z,63.05
2019-02-22T05:51:11.603Z,66.57
2019-02-22T05:51:44.396Z,59.03
2019-02-22T05:52:17.354Z,60.03
2019-02-22T05:52:50.270Z,57.27
2019-02-22T05:53:23.310Z,57.20
2019-02-22T05:53:56.219Z,60.67
2019-02-22T05:54:29.282Z,61.02
2019-02-22T05:55:02.194Z,59.45
2019-02-22T05:55:35.144Z,61.88
2019-02-22T05:56:08.063Z,59.20
2019-02-22T05:56:41.030Z,61.75
2019-02-22T05:57:14.394Z,62.03
2019-02-22T05:57:47.481Z,59.27
2019-02-22T05:58:20.481Z,60.10
2019-02-22T05:58:53.456Z,58.10
2019-02-22T05:59:26.347Z,61.68
2019-02-22T05:59:59.726Z,55.35
2019-02-22T06:00:33.130Z,61.30
2019-02-22T06:01:06.993Z,61.35
2019-02-22T06:01:39.975Z,56.37
2019-02-22T06:02:14.499Z,61.30
2019-02-22T06:02:47.679Z,60.50
2019-02-22T06:03:20.733Z,58.95
2019-02-22T06:03:53.618Z,59.83
2019-02-22T06:04:26.420Z,59.33
2019-02-22T06:04:59.546Z,56.58
2019-02-22T06:05:32.636Z,60.33
2019-02-22T06:06:05.683Z,57.17
2019-02-22T06:06:38.724Z,63.05
2019-02-22T06:07:14.460Z,61.05
2019-02-22T06:07:46.455Z,60.08
2019-02-22T06:08:19.496Z,58.33
2019-02-22T06:08:52.369Z,59.38
2019-02-22T06:09:25.270Z,54.05
2019-02-22T06:09:58.422Z,55.55
2019-02-22T06:10:31.531Z,56.73
2019-02-22T06:11:04.608Z,54.60
2019-02-22T06:11:37.511Z,56.63
2019-02-22T06:12:10.402Z,56.40
2019-02-22T06:12:44.202Z,54.00
2019-02-22T06:13:17.119Z,59.67
2019-02-22T06:13:50.020Z,58.58
2019-02-22T06:14:23.933Z,56.53
2019-02-22T06:14:56.853Z,61.85
2019-02-22T06:15:31.501Z,51.98
2019-02-22T06:16:04.519Z,52.33
2019-02-22T06:16:44.190Z,52.40
2019-02-22T06:17:18.392Z,56.73
2019-02-22T06:17:51.283Z,54.15
2019-02-22T06:18:24.302Z,54.88
2019-02-22T06:18:57.213Z,61.48
2019-02-22T06:19:30.209Z,61.20
2019-02-22T06:20:04.240Z,55.98
2019-02-22T06:20:37.199Z,57.23
2019-02-22T06:21:10.208Z,53.90
2019-02-22T06:21:43.148Z,53.73
2019-02-22T06:22:28.726Z,60.30
2019-02-22T06:22:51.055Z,53.40
2019-02-22T06:23:23.966Z,56.40
2019-02-22T06:23:56.853Z,53.98
2019-02-22T06:24:29.812Z,57.08
2019-02-22T06:25:05.042Z,53.78
2019-02-22T06:25:38.091Z,55.08
2019-02-22T06:26:10.920Z,55.33
2019-02-22T06:26:43.981Z,54.25
2019-02-22T06:27:16.871Z,61.13
2019-02-22T06:27:49.912Z,54.58
2019-02-22T06:28:22.750Z,59.38
2019-02-22T06:28:55.620Z,58.52
2019-02-22T06:29:28.569Z,56.40
2019-02-22T06:30:01.577Z,54.83
2019-02-22T06:30:34.724Z,56.77
2019-02-22T06:31:07.839Z,56.58
2019-02-22T06:31:40.821Z,57.60
2019-02-22T06:32:14.820Z,59.83
2019-02-22T06:32:47.982Z,56.35
2019-02-22T06:33:20.993Z,56.98
2019-02-22T06:33:54.301Z,56.18
2019-02-22T06:34:28.915Z,58.58
2019-02-22T06:35:01.871Z,53.65
2019-02-22T06:35:35.062Z,60.63
2019-02-22T06:36:08.045Z,56.65
2019-02-22T06:36:41.154Z,56.60
2019-02-22T06:37:14.127Z,62.93
2019-02-22T06:37:47.247Z,53.98
2019-02-22T06:38:20.246Z,56.58
2019-02-22T06:38:54.463Z,53.40
2019-02-22T06:39:27.566Z,52.58
2019-02-22T06:40:00.618Z,55.78
2019-02-22T06:40:33.598Z,56.33
2019-02-22T06:41:06.653Z,59.80
2019-02-22T06:41:39.623Z,50.83
2019-02-22T06:42:12.651Z,55.90
2019-02-22T06:42:46.257Z,58.63
2019-02-22T06:43:19.311Z,55.83
2019-02-22T06:43:52.238Z,52.62
2019-02-22T06:44:25.183Z,51.83
2019-02-22T06:44:58.133Z,53.38
2019-02-22T06:45:31.210Z,52.35
2019-02-22T06:46:04.360Z,54.40
2019-02-22T06:46:37.366Z,51.63
2019-02-22T06:47:10.303Z,52.38
2019-02-22T06:47:43.279Z,54.27
2019-02-22T06:48:16.311Z,53.65
2019-02-22T06:48:49.860Z,50.60
2019-02-22T06:49:22.966Z,55.08
2019-02-22T06:49:56.055Z,55.43
2019-02-22T06:51:04.128Z,50.58
2019-02-22T06:51:36.973Z,54.60
2019-02-22T06:52:09.886Z,51.05
2019-02-22T06:52:42.806Z,49.53
2019-02-22T06:53:15.830Z,50.38
2019-02-22T06:53:48.785Z,48.48
2019-02-22T06:54:21.575Z,53.70
2019-02-22T06:54:54.562Z,53.98
2019-02-22T06:55:27.532Z,51.25
2019-02-22T06:56:00.385Z,52.48
2019-02-22T06:56:33.279Z,54.80
2019-02-22T06:57:06.355Z,51.00
2019-02-22T06:57:39.248Z,49.30
2019-02-22T06:58:12.190Z,49.13
2019-02-22T06:58:45.163Z,52.20
2019-02-22T06:59:18.278Z,52.90
2019-02-22T06:59:51.205Z,53.35
2019-02-22T07:00:24.372Z,53.45
2019-02-22T07:00:57.259Z,55.08
2019-02-22T07:01:30.409Z,51.20
2019-02-22T07:02:03.522Z,53.87
2019-02-22T07:02:36.714Z,52.10
2019-02-22T07:03:10.026Z,56.18
2019-02-22T07:03:44.532Z,59.50
2019-02-22T07:04:17.544Z,52.62
2019-02-22T07:04:50.850Z,53.98
2019-02-22T07:05:23.814Z,54.00
2019-02-22T07:05:56.944Z,52.20
2019-02-22T07:06:30.078Z,50.85
2019-02-22T07:07:03.100Z,52.85
2019-02-22T07:07:36.112Z,50.50
2019-02-22T07:08:09.119Z,52.03
2019-02-22T07:08:42.222Z,54.15
2019-02-22T07:09:15.216Z,50.58
2019-02-22T07:09:48.307Z,54.00
2019-02-22T07:10:21.333Z,52.60
2019-02-22T07:11:25.693Z,51.35
2019-02-22T07:12:08.545Z,52.88
2019-02-22T07:12:56.180Z,57.27